Aérodrome :
LOGIN :

S'inscrire | Disclaimer

   EN    FR    IT 

 










Légende :    VFR   VFR Marginal   IFR   IFR Intensif   IFR Très Intensif
Visi : 
Plafond : 
>= 8 km
>= 3000ft
5 à 8 km
1000 à 3000 ft
1500m à 5 km
500 à 1000 ft
800 à 1500m
200 à 500 ft
< 800m
< 200 ft
Symboles :   Orages  Brouillard  Fortes neiges  Fortes précipitations  Vent > 20 kt
SIGMETs :   Divers  Orages  Givrage  Turbulence  Onde Orograph.  Cendres Volcan.






- Altitude de l'aérodrome : 425 ft
- Code IATA : DTM


EDLW - Dortmund

DERNIER METAR :
  • 010550Z 15008KT CAVOK M00/M05 Q1023

METARs EXPIRÉS :
  • 010520Z 15008KT CAVOK M01/M05 Q1023
  • 010450Z 16009KT CAVOK M01/M04 Q1023
  • 010420Z AUTO 16008KT 9999 // NCD M02/M05 Q1023
  • 010350Z AUTO 16009KT 9999 // NCD M02/M04 Q1023
  • 010320Z AUTO VRB02KT 9999 // NCD M01/M05 Q1024
  • 010250Z AUTO 16007KT 9999 // NCD M01/M04 Q1024

TAF TAF EDLW
Valide du 01 à 06h jusqu'au 02 à 06h UTC


010520Z 0106/0206 17008KT CAVOK
BECMG 0108/0111 VRB03KT
BECMG 0200/0203 19006KT



MET'MAP, la Météo Aéronautique d'un coup d'oeil ! - Copyright ORBIFLY Décembre 2007 - Disclaimer

ORBIFLY MET'MAP TEAM :

Programmation & Développement : Alexandra Zaïnal
Sur une idée originale de : Baudouin d'Aumeries
Assistance à la programmation : Marc-Olivier Méhu
Soutien technique & logistique : Manuel Goepfert

Contact : metmap@orbifly.com




SOURCES & CREDITS :

   NOAA